createdAt,value
2018-07-24T00:00:07.171Z,49.66
2018-07-24T00:02:33.120Z,49.64
2018-07-24T00:04:59.078Z,49.75
2018-07-24T00:07:25.033Z,49.80
2018-07-24T00:09:50.975Z,50.47
2018-07-24T00:12:16.907Z,51.21
2018-07-24T00:14:42.853Z,49.71
2018-07-24T00:17:08.815Z,49.52
2018-07-24T00:19:34.754Z,49.82
2018-07-24T00:22:00.702Z,50.57
2018-07-24T00:24:26.665Z,49.53
2018-07-24T00:26:52.605Z,50.17
2018-07-24T00:29:18.574Z,50.09
2018-07-24T00:31:44.575Z,50.63
2018-07-24T00:34:10.524Z,50.06
2018-07-24T00:36:36.480Z,49.16
2018-07-24T00:39:02.451Z,49.87
2018-07-24T00:41:28.419Z,50.44
2018-07-24T00:43:54.384Z,50.45
2018-07-24T00:46:20.364Z,49.80
2018-07-24T00:48:46.326Z,49.32
2018-07-24T00:51:12.329Z,49.24
2018-07-24T00:53:38.307Z,49.00
2018-07-24T00:56:04.257Z,47.73
2018-07-24T00:58:30.204Z,48.09
2018-07-24T01:00:57.221Z,48.71
2018-07-24T01:03:23.180Z,50.76
2018-07-24T01:05:49.125Z,50.70
2018-07-24T01:08:15.082Z,50.04
2018-07-24T01:10:41.015Z,49.36
2018-07-24T01:13:06.999Z,48.65
2018-07-24T01:15:32.961Z,48.88
2018-07-24T01:17:58.922Z,49.70
2018-07-24T01:20:24.885Z,49.78
2018-07-24T01:22:50.835Z,50.09
2018-07-24T01:25:16.811Z,51.29
2018-07-24T01:27:42.749Z,50.20
2018-07-24T01:30:08.693Z,50.22
2018-07-24T01:32:34.673Z,50.27
2018-07-24T01:35:00.625Z,50.97
2018-07-24T01:37:26.621Z,50.15
2018-07-24T01:39:52.584Z,50.55
2018-07-24T01:42:18.539Z,50.69
2018-07-24T01:44:44.497Z,50.17
2018-07-24T01:47:10.467Z,49.90
2018-07-24T01:49:36.442Z,49.19
2018-07-24T01:52:02.419Z,49.50
2018-07-24T01:54:28.341Z,49.56
2018-07-24T01:56:54.299Z,50.23
2018-07-24T01:59:20.379Z,50.51
2018-07-24T02:01:46.359Z,50.47
2018-07-24T02:04:12.287Z,51.95
2018-07-24T02:06:38.215Z,51.59
2018-07-24T02:09:04.180Z,53.04
2018-07-24T02:11:30.195Z,52.74
2018-07-24T02:13:56.179Z,53.14
2018-07-24T02:16:22.124Z,52.86
2018-07-24T02:18:48.107Z,53.99
2018-07-24T02:21:14.091Z,53.69
2018-07-24T02:23:40.056Z,52.47
2018-07-24T02:26:06.021Z,51.81
2018-07-24T02:28:32.037Z,52.55
2018-07-24T02:30:58.002Z,52.63
2018-07-24T02:33:23.954Z,52.56
2018-07-24T02:35:49.899Z,53.17
2018-07-24T02:38:15.871Z,53.36
2018-07-24T02:40:41.846Z,53.67
2018-07-24T02:43:07.787Z,54.04
2018-07-24T02:45:33.737Z,53.86
2018-07-24T02:47:59.707Z,53.19
2018-07-24T02:50:25.653Z,52.72
2018-07-24T02:52:51.629Z,52.34
2018-07-24T02:55:17.600Z,51.81
2018-07-24T02:57:43.600Z,51.71
2018-07-24T03:00:09.575Z,50.98
2018-07-24T03:02:35.532Z,52.15
2018-07-24T03:05:01.501Z,52.51
2018-07-24T03:07:27.448Z,53.30
2018-07-24T03:09:53.388Z,53.37
2018-07-24T03:12:19.487Z,52.55
2018-07-24T03:14:45.527Z,51.57
2018-07-24T03:17:11.467Z,50.72
2018-07-24T03:19:37.412Z,50.16
2018-07-24T03:22:03.417Z,52.33
2018-07-24T03:24:29.445Z,51.15
2018-07-24T03:26:55.393Z,51.37
2018-07-24T03:29:21.381Z,51.64
2018-07-24T03:31:48.349Z,52.36
2018-07-24T03:34:14.296Z,52.96
2018-07-24T03:36:40.295Z,53.88
2018-07-24T03:39:06.267Z,53.18
2018-07-24T03:41:32.212Z,54.19
2018-07-24T03:43:58.143Z,55.55
2018-07-24T03:46:24.092Z,55.96
2018-07-24T03:48:50.062Z,55.82
2018-07-24T03:51:16.020Z,56.50
2018-07-24T03:53:41.984Z,56.18
2018-07-24T03:56:07.945Z,56.68
2018-07-24T03:58:33.875Z,56.57
2018-07-24T04:00:59.841Z,56.52
2018-07-24T04:03:25.804Z,57.12
2018-07-24T04:05:51.784Z,56.97
2018-07-24T04:08:17.769Z,56.45
2018-07-24T04:10:43.737Z,55.45
2018-07-24T04:13:09.681Z,55.49
2018-07-24T04:15:35.676Z,55.37
2018-07-24T04:18:01.636Z,55.70
2018-07-24T04:20:27.620Z,54.82
2018-07-24T04:22:53.590Z,54.97
2018-07-24T04:25:19.725Z,54.60
2018-07-24T04:27:45.697Z,54.82
2018-07-24T04:30:11.672Z,56.06
2018-07-24T04:32:37.647Z,55.65
2018-07-24T04:35:03.674Z,55.00
2018-07-24T04:37:29.651Z,54.35
2018-07-24T04:39:55.637Z,53.73
2018-07-24T04:42:21.587Z,53.05
2018-07-24T04:44:47.586Z,52.09
2018-07-24T04:47:13.595Z,51.83
2018-07-24T04:49:39.552Z,51.54
2018-07-24T04:52:05.493Z,51.78
2018-07-24T04:54:31.449Z,52.22
2018-07-24T04:56:57.399Z,52.14
2018-07-24T04:59:23.352Z,52.04
2018-07-24T05:01:49.282Z,50.86
2018-07-24T05:04:15.260Z,50.19
2018-07-24T05:06:41.208Z,49.92
2018-07-24T05:09:07.142Z,48.71
2018-07-24T05:11:33.107Z,49.55
2018-07-24T05:13:59.057Z,48.51
2018-07-24T05:16:24.996Z,49.25
2018-07-24T05:18:50.966Z,47.82
2018-07-24T05:21:16.945Z,48.17
2018-07-24T05:23:42.904Z,47.31
2018-07-24T05:26:08.905Z,47.35
2018-07-24T05:28:34.888Z,46.21
2018-07-24T05:31:00.862Z,45.94
2018-07-24T05:33:26.827Z,45.55
2018-07-24T05:35:52.809Z,46.78
2018-07-24T05:38:18.745Z,46.69
2018-07-24T05:40:44.728Z,45.79
2018-07-24T05:43:10.658Z,46.06
2018-07-24T05:45:36.601Z,45.15
2018-07-24T05:48:03.561Z,45.03
2018-07-24T05:50:29.905Z,45.00
2018-07-24T05:52:55.849Z,44.38
2018-07-24T05:55:21.810Z,44.27
2018-07-24T05:57:47.782Z,44.50
2018-07-24T06:00:13.777Z,46.54
2018-07-24T06:02:39.718Z,47.17
2018-07-24T06:05:05.698Z,45.45
2018-07-24T06:07:31.648Z,44.26
2018-07-24T06:09:57.605Z,44.52
2018-07-24T06:12:23.567Z,44.13
2018-07-24T06:14:49.520Z,43.74
2018-07-24T06:17:15.502Z,42.66
2018-07-24T06:19:41.443Z,42.44
2018-07-24T06:22:07.407Z,42.20
2018-07-24T06:24:33.369Z,41.54
2018-07-24T06:26:59.320Z,41.65
2018-07-24T06:29:25.310Z,41.92
2018-07-24T06:31:51.268Z,41.45
2018-07-24T06:34:17.259Z,40.70
2018-07-24T06:36:43.201Z,39.89
2018-07-24T06:39:09.138Z,41.11
2018-07-24T06:41:35.072Z,39.62
2018-07-24T06:44:01.099Z,39.87
2018-07-24T06:46:27.090Z,40.13
2018-07-24T06:48:53.085Z,39.74
2018-07-24T06:51:19.128Z,40.12
2018-07-24T06:53:45.060Z,39.91
2018-07-24T06:56:11.004Z,39.73
2018-07-24T06:58:36.937Z,39.34
2018-07-24T07:01:02.933Z,39.17
2018-07-24T07:03:28.971Z,38.52
2018-07-24T07:05:54.898Z,37.13
2018-07-24T07:08:20.832Z,38.38
2018-07-24T07:10:46.796Z,38.01
2018-07-24T07:13:12.914Z,38.47
2018-07-24T07:15:39.915Z,37.60
2018-07-24T07:18:05.875Z,37.14
2018-07-24T07:20:31.869Z,38.54
2018-07-24T07:22:57.892Z,37.96
2018-07-24T07:25:23.845Z,37.17
2018-07-24T07:27:49.830Z,36.90
2018-07-24T07:30:15.851Z,36.86
2018-07-24T07:32:41.846Z,36.89
2018-07-24T07:37:41.033Z,37.12
2018-07-24T07:40:07.029Z,36.22
2018-07-24T07:42:33.044Z,35.99
2018-07-24T07:44:59.039Z,36.32
2018-07-24T07:47:25.033Z,35.95
2018-07-24T07:49:51.018Z,36.75
2018-07-24T07:52:17.013Z,36.36
2018-07-24T07:54:42.969Z,36.69
2018-07-24T07:57:08.951Z,36.41
2018-07-24T07:59:34.913Z,36.60
2018-07-24T08:02:00.960Z,36.10
2018-07-24T08:04:26.973Z,37.25
2018-07-24T08:06:52.947Z,35.99
2018-07-24T08:09:18.934Z,37.68
2018-07-24T08:11:44.907Z,36.92
2018-07-24T08:14:10.950Z,38.19
2018-07-24T08:16:36.863Z,38.22
2018-07-24T08:19:02.804Z,39.31
2018-07-24T08:21:28.841Z,40.18
2018-07-24T08:23:54.838Z,39.58
2018-07-24T08:26:20.804Z,39.90
2018-07-24T08:28:46.849Z,38.89
2018-07-24T08:31:12.805Z,40.80
2018-07-24T08:33:38.807Z,40.10
2018-07-24T08:36:04.719Z,40.36
2018-07-24T08:38:30.729Z,41.14
2018-07-24T08:40:56.679Z,41.07
2018-07-24T08:43:22.689Z,42.10
2018-07-24T08:45:48.630Z,42.64
2018-07-24T08:48:14.610Z,43.58
2018-07-24T08:50:40.622Z,42.46
2018-07-24T08:53:06.712Z,42.62
2018-07-24T08:55:33.112Z,42.01
2018-07-24T08:57:58.545Z,42.15
2018-07-24T09:00:24.472Z,41.37
2018-07-24T09:02:50.446Z,42.11
2018-07-24T09:05:16.469Z,42.75
2018-07-24T09:07:42.463Z,42.39
2018-07-24T09:10:08.734Z,41.73
2018-07-24T09:12:34.673Z,42.12
2018-07-24T09:15:00.614Z,42.02
2018-07-24T09:17:26.572Z,42.20
2018-07-24T09:19:52.517Z,41.93
2018-07-24T09:22:18.470Z,41.99
2018-07-24T09:24:44.444Z,42.71
2018-07-24T09:27:10.397Z,41.31
2018-07-24T09:29:36.354Z,42.02
2018-07-24T09:34:34.656Z,41.71
2018-07-24T09:37:00.614Z,42.08
2018-07-24T09:39:26.568Z,42.39
2018-07-24T09:41:52.534Z,42.42
2018-07-24T09:44:18.475Z,42.94
2018-07-24T09:46:44.423Z,42.76
2018-07-24T09:49:10.376Z,42.76
2018-07-24T09:51:36.359Z,43.09
2018-07-24T09:54:02.382Z,43.49
2018-07-24T09:56:28.391Z,42.58
2018-07-24T09:58:54.324Z,42.58
2018-07-24T10:01:20.341Z,42.84
2018-07-24T10:03:46.373Z,43.16
2018-07-24T10:06:12.335Z,42.60
2018-07-24T10:08:38.388Z,42.76
2018-07-24T10:11:04.369Z,43.30
2018-07-24T10:13:30.361Z,41.84
2018-07-24T10:15:56.325Z,42.41
2018-07-24T10:18:22.332Z,42.43
2018-07-24T10:20:48.330Z,42.37
2018-07-24T10:23:14.259Z,41.08
2018-07-24T10:25:40.238Z,41.16
2018-07-24T10:28:06.341Z,41.31
2018-07-24T10:30:32.365Z,41.58
2018-07-24T10:32:58.309Z,42.24
2018-07-24T10:35:24.248Z,42.15
2018-07-24T10:37:50.214Z,41.33
2018-07-24T10:40:16.159Z,41.64
2018-07-24T10:42:42.180Z,42.40
2018-07-24T10:45:08.127Z,42.36
2018-07-24T10:47:34.079Z,41.41
2018-07-24T10:50:00.078Z,42.15
2018-07-24T10:52:26.040Z,41.83
2018-07-24T10:54:52.047Z,41.86
2018-07-24T10:57:18.007Z,41.54
2018-07-24T10:59:43.990Z,42.41
2018-07-24T11:02:09.995Z,41.82
2018-07-24T11:04:35.960Z,42.49
2018-07-24T11:07:02.038Z,42.66
2018-07-24T11:09:28.032Z,42.15
2018-07-24T11:11:54.021Z,42.67
2018-07-24T11:14:20.110Z,42.29
2018-07-24T11:16:46.061Z,41.67
2018-07-24T11:19:12.006Z,42.79
2018-07-24T11:21:38.012Z,42.06
2018-07-24T11:24:04.038Z,42.54
2018-07-24T11:26:30.051Z,41.60
2018-07-24T11:28:56.041Z,41.91
2018-07-24T11:31:21.994Z,41.45
2018-07-24T11:33:47.944Z,40.56
2018-07-24T11:36:13.903Z,41.08
2018-07-24T11:38:39.908Z,40.37
2018-07-24T11:41:05.923Z,41.11
2018-07-24T11:43:31.924Z,41.26
2018-07-24T11:45:57.910Z,41.77
2018-07-24T11:48:23.854Z,41.53
2018-07-24T11:50:49.876Z,42.81
2018-07-24T11:53:15.844Z,42.09
2018-07-24T11:55:41.830Z,42.09
2018-07-24T11:58:07.898Z,42.41
2018-07-24T12:00:34.514Z,42.97
2018-07-24T12:03:00.497Z,42.88
2018-07-24T12:05:26.492Z,43.04
2018-07-24T12:07:52.526Z,43.15
2018-07-24T12:10:18.559Z,42.36
2018-07-24T12:12:44.661Z,43.55
2018-07-24T12:15:11.973Z,42.64
2018-07-24T12:17:37.998Z,42.31
2018-07-24T12:20:04.092Z,43.03
2018-07-24T12:22:31.042Z,42.17
2018-07-24T12:24:57.108Z,41.20
2018-07-24T12:27:23.059Z,41.27
2018-07-24T12:29:49.039Z,41.90
2018-07-24T12:32:15.954Z,43.25
2018-07-24T12:34:41.924Z,43.03
2018-07-24T12:37:07.938Z,42.26
2018-07-24T12:39:33.905Z,43.02
2018-07-24T12:41:59.871Z,43.41
2018-07-24T12:44:25.839Z,43.08
2018-07-24T12:46:51.797Z,42.64
2018-07-24T12:49:17.788Z,43.08
2018-07-24T12:51:43.760Z,43.39
2018-07-24T12:54:09.716Z,43.47
2018-07-24T12:56:35.762Z,43.60
2018-07-24T12:59:01.711Z,42.93
2018-07-24T13:01:27.687Z,41.99
2018-07-24T13:03:53.784Z,41.88
2018-07-24T13:06:19.776Z,42.21
2018-07-24T13:08:45.800Z,42.38
2018-07-24T13:11:11.809Z,43.42
2018-07-24T13:13:37.755Z,41.61
2018-07-24T13:16:04.333Z,42.52
2018-07-24T13:18:30.313Z,42.67
2018-07-24T13:20:56.309Z,42.49
2018-07-24T13:23:22.309Z,42.85
2018-07-24T13:25:48.325Z,43.36
2018-07-24T13:28:14.283Z,42.35
2018-07-24T13:30:40.268Z,43.48
2018-07-24T13:33:06.213Z,42.70
2018-07-24T13:35:32.168Z,43.44
2018-07-24T13:37:58.131Z,42.84
2018-07-24T13:40:24.069Z,43.20
2018-07-24T13:42:50.004Z,42.43
2018-07-24T13:45:15.960Z,42.32
2018-07-24T13:47:41.934Z,42.51
2018-07-24T13:50:08.939Z,43.04
2018-07-24T13:52:34.891Z,42.58
2018-07-24T13:55:00.911Z,42.13
2018-07-24T13:57:26.868Z,43.10
2018-07-24T13:59:52.811Z,42.35
2018-07-24T14:02:18.783Z,42.61
2018-07-24T14:04:44.769Z,43.34
2018-07-24T14:07:10.750Z,42.01
2018-07-24T14:09:36.703Z,42.61
2018-07-24T14:12:02.652Z,43.28
2018-07-24T14:14:28.625Z,43.20
2018-07-24T14:16:54.598Z,42.88
2018-07-24T14:19:20.592Z,42.99
2018-07-24T14:21:46.753Z,42.93
2018-07-24T14:24:12.645Z,42.54
2018-07-24T14:26:38.626Z,43.42
2018-07-24T14:29:04.599Z,43.37
2018-07-24T14:31:30.610Z,42.91
2018-07-24T14:33:56.572Z,41.66
2018-07-24T14:36:22.592Z,40.33
2018-07-24T14:38:48.556Z,42.62
2018-07-24T14:41:14.518Z,42.36
2018-07-24T14:43:40.477Z,42.13
2018-07-24T14:46:06.601Z,43.02
2018-07-24T14:48:32.581Z,42.02
2018-07-24T14:50:58.536Z,41.71
2018-07-24T14:53:24.527Z,41.78
2018-07-24T14:55:50.528Z,40.54
2018-07-24T14:58:16.520Z,41.10
2018-07-24T15:00:42.508Z,41.92
2018-07-24T15:03:09.065Z,41.28
2018-07-24T15:05:35.027Z,40.64
2018-07-24T15:08:01.034Z,40.85
2018-07-24T15:10:27.117Z,41.89
2018-07-24T15:12:53.101Z,41.62
2018-07-24T15:15:19.061Z,41.94
2018-07-24T15:17:45.056Z,41.95
2018-07-24T15:20:11.130Z,42.51
2018-07-24T15:22:38.500Z,42.18
2018-07-24T15:25:06.509Z,41.03
2018-07-24T15:27:32.529Z,42.17
2018-07-24T15:29:58.523Z,40.83
2018-07-24T15:32:24.507Z,40.81
2018-07-24T15:34:50.584Z,41.72
2018-07-24T15:37:16.564Z,41.79
2018-07-24T15:39:42.526Z,41.34
2018-07-24T15:42:08.604Z,41.84
2018-07-24T15:44:34.546Z,41.58
2018-07-24T15:47:00.564Z,41.75
2018-07-24T15:59:32.225Z,41.92
2018-07-24T16:01:58.298Z,42.83
2018-07-24T16:04:24.316Z,42.09
2018-07-24T16:06:50.295Z,40.55
2018-07-24T16:09:16.656Z,39.41
2018-07-24T16:11:42.634Z,40.57
2018-07-24T16:14:09.681Z,41.03
2018-07-24T16:16:35.823Z,40.70
2018-07-24T16:19:01.793Z,41.58
2018-07-24T16:21:27.730Z,39.95
2018-07-24T16:23:53.744Z,40.76
2018-07-24T16:26:19.709Z,40.94
2018-07-24T16:28:45.713Z,41.38
2018-07-24T16:31:11.675Z,40.98
2018-07-24T16:33:37.674Z,40.96
2018-07-24T16:53:49.270Z,39.53
2018-07-24T17:01:22.586Z,37.76
2018-07-24T17:03:48.559Z,36.63
2018-07-24T17:06:14.517Z,38.12
2018-07-24T17:08:41.280Z,38.95
2018-07-24T17:11:07.310Z,38.34
2018-07-24T17:13:33.347Z,37.86
2018-07-24T17:15:59.288Z,37.89
2018-07-24T17:18:25.255Z,38.36
2018-07-24T17:20:51.192Z,38.10
2018-07-24T17:23:17.766Z,37.61
2018-07-24T17:25:43.728Z,37.81
2018-07-24T17:28:09.745Z,38.08
2018-07-24T17:30:35.699Z,38.41
2018-07-24T17:33:02.533Z,39.58
2018-07-24T17:38:02.296Z,38.92
2018-07-24T17:40:28.275Z,40.07
2018-07-24T17:42:54.344Z,38.68
2018-07-24T17:45:20.319Z,39.22
2018-07-24T17:47:46.349Z,38.11
2018-07-24T17:50:12.350Z,38.60
2018-07-24T17:55:15.559Z,39.31
2018-07-24T17:57:41.501Z,38.23
2018-07-24T18:00:08.215Z,38.72
2018-07-24T18:07:40.631Z,38.86
2018-07-24T18:10:06.688Z,39.01
2018-07-24T18:12:32.666Z,38.79
2018-07-24T18:14:58.707Z,38.49
2018-07-24T18:17:24.774Z,38.20
2018-07-24T18:19:50.765Z,38.21
2018-07-24T18:22:16.721Z,38.88
2018-07-24T18:24:42.831Z,38.77
2018-07-24T18:27:08.832Z,39.90
2018-07-24T18:29:34.993Z,39.15
2018-07-24T18:32:03.134Z,40.24
2018-07-24T18:34:29.137Z,39.61
2018-07-24T18:36:55.135Z,39.63
2018-07-24T18:39:21.147Z,39.56
2018-07-24T18:41:47.847Z,40.00
2018-07-24T18:44:13.955Z,40.40
2018-07-24T18:46:40.107Z,40.02
2018-07-24T18:49:06.108Z,40.77
2018-07-24T18:51:32.796Z,40.12
2018-07-24T18:53:58.820Z,39.87
2018-07-24T18:56:24.942Z,40.77
2018-07-24T18:58:51.029Z,40.32
2018-07-24T19:01:17.040Z,40.98
2018-07-24T19:03:43.031Z,41.13
2018-07-24T19:06:09.890Z,40.73
2018-07-24T19:08:35.857Z,40.61
2018-07-24T19:11:01.898Z,41.18
2018-07-24T19:13:27.959Z,40.45
2018-07-24T19:15:53.999Z,41.26
2018-07-24T19:18:20.087Z,41.04
2018-07-24T19:20:46.108Z,40.94
2018-07-24T19:23:12.186Z,40.59
2018-07-24T19:25:38.836Z,41.47
2018-07-24T19:28:06.167Z,41.32
2018-07-24T19:30:32.248Z,40.79
2018-07-24T19:32:58.408Z,41.45
2018-07-24T19:35:24.779Z,41.32
2018-07-24T19:37:50.869Z,41.83
2018-07-24T19:40:18.938Z,40.84
2018-07-24T19:45:19.525Z,42.39
2018-07-24T19:47:49.460Z,41.55
2018-07-24T19:50:15.497Z,41.88
2018-07-24T19:52:41.648Z,41.46
2018-07-24T19:55:08.549Z,41.64
2018-07-24T19:57:34.628Z,41.85
2018-07-24T20:00:00.617Z,42.14
2018-07-24T20:02:26.681Z,42.06
2018-07-24T20:04:53.623Z,42.09
2018-07-24T20:07:19.798Z,42.37
2018-07-24T20:09:45.926Z,43.56
2018-07-24T20:12:11.950Z,43.73
2018-07-24T20:14:38.001Z,43.57
2018-07-24T20:17:06.193Z,43.11
2018-07-24T20:19:32.295Z,43.58
2018-07-24T20:21:58.297Z,44.19
2018-07-24T20:24:24.354Z,44.12
2018-07-24T20:26:50.371Z,44.04
2018-07-24T20:29:16.722Z,43.60
2018-07-24T20:31:42.940Z,44.60
2018-07-24T20:34:08.968Z,43.79
2018-07-24T20:36:35.012Z,44.00
2018-07-24T20:39:01.405Z,44.44
2018-07-24T20:41:27.447Z,44.70
2018-07-24T20:43:57.038Z,44.35
2018-07-24T20:46:23.302Z,43.97
2018-07-24T20:48:49.356Z,44.38
2018-07-24T20:51:15.468Z,44.44
2018-07-24T20:53:41.455Z,44.87
2018-07-24T20:56:07.476Z,44.68
2018-07-24T20:58:33.491Z,45.53
2018-07-24T21:00:59.589Z,46.06
2018-07-24T21:03:25.634Z,45.43
2018-07-24T21:05:51.671Z,45.36
2018-07-24T21:08:17.648Z,46.48
2018-07-24T21:10:44.604Z,45.89
2018-07-24T21:13:10.688Z,46.34
2018-07-24T21:15:36.689Z,46.36
2018-07-24T21:18:02.729Z,46.42
2018-07-24T21:20:28.738Z,47.14
2018-07-24T21:22:54.699Z,47.51
2018-07-24T21:25:20.802Z,46.44
2018-07-24T21:27:46.825Z,47.15
2018-07-24T21:30:12.855Z,48.50
2018-07-24T21:32:38.845Z,48.75
2018-07-24T21:35:04.839Z,48.76
2018-07-24T21:37:30.900Z,47.98
2018-07-24T21:39:56.893Z,49.01
2018-07-24T21:42:22.943Z,50.07
2018-07-24T21:44:48.967Z,49.10
2018-07-24T21:47:14.988Z,49.45
2018-07-24T21:49:41.037Z,48.97
2018-07-24T21:52:07.074Z,50.29
2018-07-24T21:54:33.119Z,49.89
2018-07-24T21:56:59.136Z,49.47
2018-07-24T21:59:25.110Z,50.40
2018-07-24T22:01:51.109Z,50.23
2018-07-24T22:04:17.146Z,50.26
2018-07-24T22:06:43.178Z,51.32
2018-07-24T22:09:09.207Z,50.38
2018-07-24T22:11:35.191Z,50.96
2018-07-24T22:14:01.201Z,50.94
2018-07-24T22:16:27.210Z,49.50
2018-07-24T22:18:53.218Z,50.65
2018-07-24T22:21:19.180Z,49.75
2018-07-24T22:23:45.201Z,51.02
2018-07-24T22:26:11.199Z,50.65
2018-07-24T22:28:37.212Z,51.18
2018-07-24T22:31:03.198Z,50.92
2018-07-24T22:33:29.190Z,51.10
2018-07-24T22:35:55.177Z,52.04
2018-07-24T22:38:21.167Z,50.71
2018-07-24T22:40:47.155Z,51.24
2018-07-24T22:43:13.219Z,50.68
2018-07-24T22:45:39.250Z,51.54
2018-07-24T22:48:05.294Z,51.17
2018-07-24T22:50:31.439Z,51.92
2018-07-24T22:52:57.433Z,51.60
2018-07-24T22:55:23.421Z,51.60
2018-07-24T22:57:49.430Z,50.94
2018-07-24T23:00:15.454Z,50.72
2018-07-24T23:02:41.477Z,50.92
2018-07-24T23:05:07.483Z,51.86
2018-07-24T23:07:33.443Z,52.10
2018-07-24T23:09:59.457Z,51.39
2018-07-24T23:12:25.531Z,52.02
2018-07-24T23:14:51.564Z,50.63
2018-07-24T23:17:17.570Z,52.21
2018-07-24T23:19:43.542Z,51.86
2018-07-24T23:22:09.545Z,51.04
2018-07-24T23:24:35.538Z,51.79
2018-07-24T23:29:33.927Z,51.22
2018-07-24T23:31:59.930Z,50.78
2018-07-24T23:34:25.936Z,51.58
2018-07-24T23:36:51.902Z,51.80
2018-07-24T23:39:17.882Z,51.29
2018-07-24T23:41:43.903Z,50.22
2018-07-24T23:44:09.899Z,50.51
2018-07-24T23:46:35.935Z,51.35
2018-07-24T23:49:01.943Z,50.64
2018-07-24T23:51:27.914Z,51.26
2018-07-24T23:53:53.908Z,52.14
2018-07-24T23:56:20.727Z,51.47
2018-07-24T23:58:46.771Z,50.65
